Stone Cabin, Nevada Weather observations

Data are for observation ending at time listed.
 Day   Time    Ave.   Ave.  Ave.  Vector   Max.   Stn.    Total    Solar   Ave.  
  of    of     Air    Rel.  Wind   Wind    Wind   Baro.  Precip.   Rad.    Soil  
Year   Day     Temp.  Hum.  Speed  Dir.    Gust   Pres.                    Temp. 
2014   (PST)    F      %     mph   deg.    mph     mb.     in.     W/m2     F   
------------------------------------------------------------------------------
 293   16:00   69.2    22    9.2   174     21.5    819     0.00     171    58.7
 293   17:00   67.1    24    7.6   158     19.1    818     0.00      32    58.4
 293   18:00   64.6    27    5.0   165     12.9    818     0.00       2    57.9
 293   19:00   60.9    30    3.8   158     10.0    819     0.00       0    57.3
 293   20:00   56.8    35    2.2   164      8.6    819     0.00       0    56.6
 293   21:00   51.5    42    1.0   186      5.1    813     0.00       0    55.6
 293   22:00   48.3    48    1.3   314      9.1    816     0.00       0    54.7
 293   23:00   48.0    49    1.6   133      6.7    818     0.00       0    53.8
 294    0:00   49.0    48    2.0     6      8.6    819     0.00       0    53.2
 294    1:00   52.8    44    1.8    80      7.5    819     0.00       0    52.8
 294    2:00   50.2    48    1.3   256      6.4    819     0.00       0    52.5
 294    3:00   47.7    52    2.2   248      6.9    820     0.00       0    52.1
 294    4:00   43.5    59    2.1   230      6.8    819     0.00       0    51.7
 294    5:00   43.2    56    1.6   295      7.5    818     0.00       0    51.3
 294    6:00   35.9    66    1.2   309      5.0    818     0.00       0    50.8
 294    7:00   31.9    75    0.5   305      2.6    818     0.00      14    50.0
 294    8:00   40.6    62    1.3   324      4.2    818     0.00     132    49.5
 294    9:00   54.8    37    0.8   149      2.7    818     0.00     455    49.7
 294   10:00   60.9    24    1.9   150      7.1    817     0.00     612    50.7
 294   11:00   63.3    18    3.1   180      9.9    820     0.00     627    53.0
 294   12:00   64.3    13    7.8   289     18.0    819     0.00     704    55.4
 294   13:00   63.5    12    8.6   288     18.4    818     0.00     474    57.1
 294   14:00   63.8     9   10.3   285     19.3    818     0.00     374    57.7
 294   15:00   63.7     8    8.4   294     15.4    818     0.00     270    57.7

Return to Stone Cabin, Nevada graphs page.


Western Regional Climate Center,wrcc@dri.edu